createdAt,value
2018-01-17T00:00:43.451Z,1.77
2018-01-17T00:03:11.596Z,1.67
2018-01-17T00:05:39.717Z,2.10
2018-01-17T00:08:07.860Z,2.27
2018-01-17T00:10:35.983Z,1.60
2018-01-17T00:13:04.137Z,2.10
2018-01-17T00:15:32.269Z,1.70
2018-01-17T00:18:00.423Z,1.70
2018-01-17T00:20:29.320Z,2.63
2018-01-17T00:22:59.024Z,1.60
2018-01-17T00:25:27.161Z,1.87
2018-01-17T00:27:55.829Z,2.43
2018-01-17T00:30:23.984Z,2.60
2018-01-17T00:32:52.126Z,1.97
2018-01-17T00:35:20.295Z,1.83
2018-01-17T00:37:48.500Z,2.70
2018-01-17T00:40:16.652Z,2.30
2018-01-17T00:42:44.800Z,2.00
2018-01-17T00:45:13.684Z,2.30
2018-01-17T00:47:42.596Z,1.93
2018-01-17T00:50:10.724Z,2.13
2018-01-17T00:52:38.872Z,2.00
2018-01-17T00:55:07.004Z,3.30
2018-01-17T00:57:35.148Z,1.97
2018-01-17T01:00:04.430Z,2.10
2018-01-17T01:02:33.313Z,2.03
2018-01-17T01:05:02.236Z,2.03
2018-01-17T01:07:31.126Z,1.37
2018-01-17T01:10:00.025Z,1.57
2018-01-17T01:12:29.718Z,1.37
2018-01-17T01:14:57.835Z,1.60
2018-01-17T01:17:27.516Z,1.40
2018-01-17T01:19:55.640Z,1.30
2018-01-17T01:22:24.544Z,1.43
2018-01-17T01:24:53.520Z,1.67
2018-01-17T01:27:21.646Z,1.93
2018-01-17T01:29:50.565Z,1.40
2018-01-17T01:32:18.699Z,1.40
2018-01-17T01:34:46.836Z,1.60
2018-01-17T01:37:14.971Z,1.47
2018-01-17T01:39:43.100Z,1.30
2018-01-17T01:42:11.231Z,1.40
2018-01-17T01:44:39.391Z,1.40
2018-01-17T01:47:08.265Z,1.60
2018-01-17T01:49:37.154Z,1.20
2018-01-17T01:52:06.121Z,1.43
2018-01-17T01:54:34.248Z,1.37
2018-01-17T01:57:02.391Z,1.40
2018-01-17T01:59:30.520Z,1.13
2018-01-17T02:01:59.436Z,1.30
2018-01-17T02:04:28.324Z,1.73
2018-01-17T02:06:57.245Z,1.70
2018-01-17T02:09:26.124Z,1.80
2018-01-17T02:11:55.983Z,1.83
2018-01-17T02:14:24.864Z,1.93
2018-01-17T02:16:53.768Z,1.47
2018-01-17T02:19:22.692Z,1.80
2018-01-17T02:21:51.600Z,1.70
2018-01-17T02:24:20.467Z,1.67
2018-01-17T02:26:48.608Z,1.47
2018-01-17T02:29:16.748Z,1.60
2018-01-17T02:31:46.516Z,1.60
2018-01-17T02:34:14.662Z,1.53
2018-01-17T02:36:42.788Z,1.40
2018-01-17T02:39:10.912Z,1.53
2018-01-17T02:41:40.540Z,2.03
2018-01-17T02:44:08.673Z,1.70
2018-01-17T02:46:36.808Z,1.70
2018-01-17T02:49:04.950Z,1.57
2018-01-17T02:51:33.085Z,1.57
2018-01-17T02:54:01.209Z,1.70
2018-01-17T02:56:29.344Z,2.20
2018-01-17T02:58:57.499Z,1.60
2018-01-17T03:01:25.640Z,1.70
2018-01-17T03:03:53.792Z,2.10
2018-01-17T03:06:22.682Z,2.50
2018-01-17T03:08:50.800Z,1.67
2018-01-17T03:11:18.948Z,1.97
2018-01-17T03:13:47.064Z,1.80
2018-01-17T03:16:15.199Z,2.50
2018-01-17T03:18:43.323Z,2.17
2018-01-17T03:21:11.479Z,2.07
2018-01-17T03:23:39.644Z,2.30
2018-01-17T03:26:08.547Z,1.83
2018-01-17T03:28:36.667Z,1.30
2018-01-17T03:31:04.800Z,1.67
2018-01-17T03:33:33.692Z,1.20
2018-01-17T03:36:01.821Z,1.13
2018-01-17T03:38:29.968Z,1.00
2018-01-17T03:40:58.095Z,1.13
2018-01-17T03:43:26.240Z,1.10
2018-01-17T03:45:54.796Z,1.00
2018-01-17T03:48:22.925Z,1.00
2018-01-17T03:50:51.827Z,1.10
2018-01-17T03:53:20.737Z,0.80
2018-01-17T03:55:49.380Z,0.90
2018-01-17T03:58:17.516Z,1.07
2018-01-17T04:00:46.428Z,0.90
2018-01-17T04:03:15.348Z,0.90
2018-01-17T04:05:44.245Z,1.00
2018-01-17T04:08:13.176Z,1.17
2018-01-17T04:10:41.295Z,1.03
2018-01-17T04:13:09.420Z,0.90
2018-01-17T04:15:37.579Z,0.90
2018-01-17T04:18:05.704Z,0.90
2018-01-17T04:20:33.840Z,0.90
2018-01-17T04:23:01.964Z,1.10
2018-01-17T04:25:30.126Z,1.13
2018-01-17T04:27:58.264Z,1.50
2018-01-17T04:30:26.399Z,1.10
2018-01-17T04:32:55.300Z,1.00
2018-01-17T04:35:23.432Z,1.10
2018-01-17T04:37:51.572Z,1.10
2018-01-17T04:40:19.708Z,1.00
2018-01-17T04:42:47.843Z,0.90
2018-01-17T04:45:17.734Z,1.00
2018-01-17T04:47:46.688Z,1.10
2018-01-17T04:50:15.579Z,1.10
2018-01-17T04:52:43.715Z,1.20
2018-01-17T04:55:11.844Z,1.07
2018-01-17T04:57:39.972Z,1.07
2018-01-17T05:00:08.101Z,1.17
2018-01-17T05:02:36.910Z,1.20
2018-01-17T05:05:05.033Z,1.17
2018-01-17T05:07:33.173Z,2.40
2018-01-17T05:10:01.358Z,1.17
2018-01-17T05:12:29.491Z,1.30
2018-01-17T05:14:57.611Z,0.90
2018-01-17T05:17:25.772Z,1.30
2018-01-17T05:19:53.922Z,1.30
2018-01-17T05:22:22.044Z,1.73
2018-01-17T05:24:50.182Z,1.20
2018-01-17T05:27:18.304Z,1.60
2018-01-17T05:29:46.458Z,1.30
2018-01-17T05:32:14.574Z,1.40
2018-01-17T05:34:43.465Z,1.13
2018-01-17T05:37:12.356Z,1.20
2018-01-17T05:39:40.496Z,1.07
2018-01-17T05:42:09.610Z,1.10
2018-01-17T05:44:37.718Z,1.20
2018-01-17T05:47:05.839Z,1.50
2018-01-17T05:49:34.737Z,1.50
2018-01-17T05:52:03.636Z,1.27
2018-01-17T05:54:31.776Z,1.37
2018-01-17T05:57:00.868Z,1.20
2018-01-17T05:59:29.024Z,1.83
2018-01-17T06:01:57.954Z,1.17
2018-01-17T06:04:26.096Z,1.30
2018-01-17T06:06:54.231Z,1.40
2018-01-17T06:09:22.360Z,1.20
2018-01-17T06:11:50.504Z,1.20
2018-01-17T06:14:18.651Z,1.30
2018-01-17T06:16:46.769Z,1.30
2018-01-17T06:19:14.896Z,1.53
2018-01-17T06:21:43.055Z,1.20
2018-01-17T06:24:11.168Z,1.37
2018-01-17T06:26:39.300Z,1.20
2018-01-17T06:29:07.433Z,1.13
2018-01-17T06:31:35.580Z,1.17
2018-01-17T06:34:03.710Z,1.20
2018-01-17T06:36:31.844Z,1.30
2018-01-17T06:38:59.972Z,1.20
2018-01-17T06:41:28.116Z,1.20
2018-01-17T06:43:56.236Z,1.37
2018-01-17T06:46:24.374Z,1.20
2018-01-17T06:48:53.265Z,1.57
2018-01-17T06:51:22.156Z,1.50
2018-01-17T06:53:50.287Z,1.50
2018-01-17T06:56:18.460Z,1.10
2018-01-17T06:58:46.616Z,1.30
2018-01-17T07:01:14.763Z,1.17
2018-01-17T07:03:42.885Z,1.63
2018-01-17T07:06:11.293Z,1.50
2018-01-17T07:08:39.411Z,1.80
2018-01-17T07:11:07.555Z,1.40
2018-01-17T07:13:35.677Z,1.67
2018-01-17T07:16:03.807Z,1.43
2018-01-17T07:18:32.306Z,1.50
2018-01-17T07:21:00.447Z,1.30
2018-01-17T07:23:29.496Z,1.20
2018-01-17T07:25:57.577Z,1.80
2018-01-17T07:28:25.704Z,1.70
2018-01-17T07:30:54.606Z,2.40
2018-01-17T07:33:23.515Z,5.50
2018-01-17T07:35:51.648Z,2.53
2018-01-17T07:38:19.777Z,1.30
2018-01-17T07:40:48.697Z,2.03
2018-01-17T07:43:16.803Z,1.30
2018-01-17T07:45:44.953Z,1.90
2018-01-17T07:48:13.107Z,1.43
2018-01-17T07:50:41.233Z,1.50
2018-01-17T07:53:09.353Z,1.30
2018-01-17T07:55:37.491Z,1.27
2018-01-17T07:58:06.424Z,1.20
2018-01-17T08:00:34.559Z,1.27
2018-01-17T08:03:02.711Z,1.30
2018-01-17T08:05:30.861Z,1.37
2018-01-17T08:07:59.767Z,1.30
2018-01-17T08:10:28.689Z,1.30
2018-01-17T08:12:56.812Z,1.30
2018-01-17T08:15:24.945Z,1.27
2018-01-17T08:17:53.069Z,1.60
2018-01-17T08:20:21.201Z,1.90
2018-01-17T08:22:51.074Z,1.73
2018-01-17T08:25:19.219Z,1.50
2018-01-17T08:27:48.087Z,1.30
2018-01-17T08:30:16.280Z,1.50
2018-01-17T08:32:44.400Z,1.27
2018-01-17T08:35:12.540Z,2.20
2018-01-17T08:37:40.678Z,1.53
2018-01-17T08:40:08.807Z,1.50
2018-01-17T08:42:36.962Z,1.50
2018-01-17T08:45:05.111Z,1.27
2018-01-17T08:47:33.256Z,1.40
2018-01-17T08:50:01.388Z,1.70
2018-01-17T08:52:30.295Z,1.20
2018-01-17T08:54:59.195Z,1.60
2018-01-17T08:57:28.112Z,1.70
2018-01-17T08:59:57.008Z,1.50
2018-01-17T09:02:25.948Z,4.33
2018-01-17T09:04:54.094Z,2.10
2018-01-17T09:07:22.270Z,1.23
2018-01-17T09:09:50.392Z,2.10
2018-01-17T09:12:18.520Z,2.07
2018-01-17T09:14:46.683Z,1.93
2018-01-17T09:17:14.800Z,2.00
2018-01-17T09:19:42.949Z,2.20
2018-01-17T09:22:11.741Z,1.50
2018-01-17T09:24:39.896Z,1.90
2018-01-17T09:27:08.787Z,1.90
2018-01-17T09:29:36.952Z,1.33
2018-01-17T09:32:05.087Z,1.50
2018-01-17T09:34:33.986Z,1.40
2018-01-17T09:37:02.895Z,1.70
2018-01-17T09:39:31.919Z,1.50
2018-01-17T09:42:00.038Z,3.03
2018-01-17T09:44:29.658Z,1.60
2018-01-17T09:46:57.804Z,1.57
2018-01-17T09:49:25.961Z,1.50
2018-01-17T09:51:54.846Z,1.87
2018-01-17T09:54:22.987Z,1.70
2018-01-17T09:56:51.888Z,1.40
2018-01-17T09:59:20.076Z,1.40
2018-01-17T10:01:48.949Z,1.47
2018-01-17T10:04:17.851Z,1.20
2018-01-17T10:06:46.763Z,1.30
2018-01-17T10:09:14.936Z,1.20
2018-01-17T10:11:43.812Z,1.37
2018-01-17T10:14:11.956Z,1.30
2018-01-17T10:16:40.111Z,1.30
2018-01-17T10:19:08.998Z,1.83
2018-01-17T10:21:37.137Z,1.80
2018-01-17T10:24:05.281Z,2.20
2018-01-17T10:26:33.422Z,2.00
2018-01-17T10:29:02.462Z,1.80
2018-01-17T10:31:30.593Z,1.90
2018-01-17T10:33:59.480Z,1.40
2018-01-17T10:36:27.615Z,1.13
2018-01-17T10:38:55.805Z,1.40
2018-01-17T10:41:24.942Z,1.60
2018-01-17T10:43:53.084Z,1.50
2018-01-17T10:46:21.220Z,1.70
2018-01-17T10:48:50.132Z,1.40
2018-01-17T10:51:18.271Z,2.43
2018-01-17T10:53:46.442Z,2.63
2018-01-17T10:56:14.572Z,2.00
2018-01-17T10:58:42.756Z,1.40
2018-01-17T11:01:10.893Z,1.90
2018-01-17T11:03:39.057Z,1.40
2018-01-17T11:06:07.964Z,1.30
2018-01-17T11:08:36.950Z,1.67
2018-01-17T11:11:05.634Z,1.50
2018-01-17T11:13:33.801Z,1.60
2018-01-17T11:16:01.941Z,1.33
2018-01-17T11:18:30.069Z,1.80
2018-01-17T11:20:59.014Z,1.30
2018-01-17T11:23:27.936Z,1.20
2018-01-17T11:25:56.123Z,1.30
2018-01-17T11:28:24.244Z,1.50
2018-01-17T11:30:52.431Z,1.67
2018-01-17T11:33:20.594Z,1.40
2018-01-17T11:35:48.728Z,1.43
2018-01-17T11:38:16.886Z,1.40
2018-01-17T11:40:45.045Z,1.50
2018-01-17T11:43:13.957Z,1.80
2018-01-17T11:45:42.110Z,1.80
2018-01-17T11:48:11.071Z,1.70
2018-01-17T11:50:39.197Z,1.63
2018-01-17T11:53:08.123Z,2.03
2018-01-17T11:55:37.008Z,1.50
2018-01-17T11:58:05.921Z,1.70
2018-01-17T12:00:34.853Z,1.90
2018-01-17T12:03:03.027Z,2.40
2018-01-17T12:05:31.172Z,1.87
2018-01-17T12:07:59.322Z,2.03
2018-01-17T12:10:27.475Z,2.00
2018-01-17T12:12:56.384Z,2.43
2018-01-17T12:15:24.538Z,2.40
2018-01-17T12:17:52.676Z,2.20
2018-01-17T12:20:20.820Z,2.07
2018-01-17T12:22:49.724Z,2.23
2018-01-17T12:25:18.643Z,1.80
2018-01-17T12:27:47.536Z,2.20
2018-01-17T12:30:16.459Z,2.17
2018-01-17T12:32:44.586Z,2.00
2018-01-17T12:35:12.748Z,2.37
2018-01-17T12:37:40.875Z,2.07
2018-01-17T12:40:09.060Z,2.87
2018-01-17T12:42:39.280Z,2.37
2018-01-17T12:45:07.421Z,2.77
2018-01-17T12:47:35.555Z,2.00
2018-01-17T12:50:03.750Z,2.10
2018-01-17T12:52:31.875Z,2.17
2018-01-17T12:55:00.780Z,2.33
2018-01-17T12:57:28.948Z,2.20
2018-01-17T12:59:57.837Z,2.23
2018-01-17T13:02:25.993Z,2.30
2018-01-17T13:04:54.723Z,2.53
2018-01-17T13:07:22.889Z,1.90
2018-01-17T13:09:51.022Z,2.60
2018-01-17T13:12:20.091Z,2.03
2018-01-17T13:14:48.237Z,3.30
2018-01-17T13:17:16.413Z,2.27
2018-01-17T13:19:44.524Z,3.03
2018-01-17T13:22:12.693Z,2.47
2018-01-17T13:24:40.830Z,2.60
2018-01-17T13:27:09.012Z,2.10
2018-01-17T13:29:37.144Z,3.13
2018-01-17T13:32:05.289Z,2.70
2018-01-17T13:34:34.253Z,2.57
2018-01-17T13:37:02.413Z,2.33
2018-01-17T13:39:31.324Z,3.20
2018-01-17T13:41:59.463Z,2.07
2018-01-17T13:44:27.604Z,2.97
2018-01-17T13:46:55.747Z,2.50
2018-01-17T13:49:23.926Z,2.73
2018-01-17T13:51:52.060Z,2.40
2018-01-17T13:54:20.233Z,2.43
2018-01-17T13:56:48.380Z,2.50
2018-01-17T13:59:16.582Z,2.57
2018-01-17T14:01:44.695Z,2.77
2018-01-17T14:04:12.851Z,3.03
2018-01-17T14:06:41.000Z,3.03
2018-01-17T14:09:09.161Z,2.33
2018-01-17T14:11:37.316Z,2.07
2018-01-17T14:14:06.221Z,2.43
2018-01-17T14:16:34.377Z,2.80
2018-01-17T14:19:03.237Z,2.40
2018-01-17T14:21:31.393Z,2.70
2018-01-17T14:24:00.309Z,2.10
2018-01-17T14:26:29.199Z,2.60
2018-01-17T14:28:58.120Z,3.00
2018-01-17T14:31:26.260Z,2.40
2018-01-17T14:33:54.413Z,3.63
2018-01-17T14:36:22.549Z,2.90
2018-01-17T14:38:50.713Z,2.60
2018-01-17T14:41:19.648Z,2.50
2018-01-17T14:43:47.796Z,2.73
2018-01-17T14:46:15.944Z,2.67
2018-01-17T14:48:44.917Z,2.70
2018-01-17T14:51:13.069Z,3.57
2018-01-17T14:53:41.226Z,2.33
2018-01-17T14:56:09.365Z,3.27
2018-01-17T14:58:37.554Z,2.63
2018-01-17T15:01:05.725Z,2.47
2018-01-17T15:03:33.871Z,3.00
2018-01-17T15:06:02.779Z,4.20
2018-01-17T15:08:31.877Z,3.10
2018-01-17T15:11:00.010Z,3.40
2018-01-17T15:13:28.182Z,3.00
2018-01-17T15:15:56.317Z,3.10
2018-01-17T15:18:24.474Z,3.40
2018-01-17T15:20:52.596Z,4.10
2018-01-17T15:23:21.685Z,3.40
2018-01-17T15:25:50.313Z,3.80
2018-01-17T15:28:21.065Z,3.70
2018-01-17T15:30:49.208Z,2.97
2018-01-17T15:33:18.072Z,3.27
2018-01-17T15:35:46.230Z,3.60
2018-01-17T15:38:15.183Z,3.70
2018-01-17T15:40:43.320Z,3.43
2018-01-17T15:43:12.360Z,3.00
2018-01-17T15:45:40.533Z,2.30
2018-01-17T15:48:08.674Z,2.33
2018-01-17T15:50:36.847Z,3.30
2018-01-17T15:53:05.869Z,2.47
2018-01-17T15:55:34.027Z,2.00
2018-01-17T15:58:02.165Z,2.17
2018-01-17T16:00:31.104Z,3.80
2018-01-17T16:03:00.377Z,2.33
2018-01-17T16:05:28.488Z,4.73
2018-01-17T16:07:56.651Z,2.20
2018-01-17T16:10:25.548Z,1.40
2018-01-17T16:12:54.471Z,2.10
2018-01-17T16:15:23.467Z,2.50
2018-01-17T16:17:52.381Z,2.67
2018-01-17T16:20:20.588Z,1.93
2018-01-17T16:22:48.707Z,2.23
2018-01-17T16:25:16.890Z,2.10
2018-01-17T16:27:45.038Z,2.23
2018-01-17T16:30:13.195Z,2.40
2018-01-17T16:32:42.099Z,2.60
2018-01-17T16:35:11.046Z,2.53
2018-01-17T16:37:39.202Z,2.20
2018-01-17T16:40:08.135Z,3.23
2018-01-17T16:42:36.300Z,2.43
2018-01-17T16:45:05.218Z,3.77
2018-01-17T16:47:33.368Z,3.20
2018-01-17T16:50:02.354Z,2.83
2018-01-17T16:52:30.497Z,2.73
2018-01-17T16:54:58.737Z,3.30
2018-01-17T16:57:26.881Z,3.63
2018-01-17T16:59:55.046Z,3.40
2018-01-17T17:02:23.205Z,2.90
2018-01-17T17:04:51.381Z,2.70
2018-01-17T17:07:19.525Z,2.60
2018-01-17T17:09:47.668Z,3.40
2018-01-17T17:12:16.599Z,2.70
2018-01-17T17:14:44.738Z,2.70
2018-01-17T17:17:12.901Z,3.10
2018-01-17T17:19:41.034Z,2.77
2018-01-17T17:22:09.935Z,3.37
2018-01-17T17:24:38.834Z,3.37
2018-01-17T17:27:07.746Z,3.97
2018-01-17T17:29:37.607Z,2.90
2018-01-17T17:32:06.388Z,3.03
2018-01-17T17:34:35.291Z,3.57
2018-01-17T17:37:03.443Z,3.50
2018-01-17T17:39:31.582Z,3.97
2018-01-17T17:41:59.709Z,3.90
2018-01-17T17:44:27.886Z,2.43
2018-01-17T17:46:56.014Z,3.80
2018-01-17T17:49:24.229Z,3.17
2018-01-17T17:51:52.359Z,5.83
2018-01-17T17:54:20.538Z,7.07
2018-01-17T17:56:48.704Z,4.43
2018-01-17T17:59:16.870Z,4.77
2018-01-17T18:01:45.017Z,4.33
2018-01-17T18:04:13.963Z,3.53
2018-01-17T18:06:42.128Z,4.30
2018-01-17T18:09:10.289Z,3.70
2018-01-17T18:11:39.209Z,3.73
2018-01-17T18:14:08.159Z,3.87
2018-01-17T18:16:37.133Z,3.63
2018-01-17T18:19:05.433Z,3.20
2018-01-17T18:21:33.602Z,3.60
2018-01-17T18:24:04.329Z,3.07
2018-01-17T18:26:32.490Z,4.70
2018-01-17T18:29:01.440Z,4.30
2018-01-17T18:31:30.347Z,3.70
2018-01-17T18:33:59.277Z,3.27
2018-01-17T18:36:27.458Z,3.97
2018-01-17T18:38:55.800Z,4.20
2018-01-17T18:41:23.991Z,5.53
2018-01-17T18:43:52.157Z,6.27
2018-01-17T18:46:20.317Z,7.30
2018-01-17T18:48:48.487Z,6.80
2018-01-17T18:51:16.617Z,5.10
2018-01-17T18:53:44.785Z,4.40
2018-01-17T18:56:13.701Z,5.10
2018-01-17T18:58:41.881Z,5.63
2018-01-17T19:01:10.799Z,4.80
2018-01-17T19:03:38.944Z,5.97
2018-01-17T19:06:07.099Z,6.90
2018-01-17T19:08:36.034Z,5.70
2018-01-17T19:11:04.202Z,4.77
2018-01-17T19:13:32.368Z,5.33
2018-01-17T19:16:00.518Z,4.67
2018-01-17T19:18:28.718Z,4.97
2018-01-17T19:20:56.860Z,4.80
2018-01-17T19:23:25.033Z,7.20
2018-01-17T19:25:53.193Z,7.30
2018-01-17T19:28:21.464Z,7.17
2018-01-17T19:30:49.595Z,6.83
2018-01-17T19:33:17.773Z,7.73
2018-01-17T19:35:47.638Z,5.40
2018-01-17T19:38:15.817Z,4.57
2018-01-17T19:40:43.972Z,4.60
2018-01-17T19:43:12.130Z,4.77
2018-01-17T19:45:40.301Z,5.17
2018-01-17T19:48:08.997Z,4.93
2018-01-17T19:50:41.088Z,4.60
2018-01-17T19:53:09.264Z,4.63
2018-01-17T19:55:37.418Z,4.77
2018-01-17T19:58:05.587Z,4.50
2018-01-17T20:00:34.513Z,4.30
2018-01-17T20:03:02.675Z,4.77
2018-01-17T20:05:31.601Z,3.10
2018-01-17T20:08:00.333Z,3.93
2018-01-17T20:10:29.341Z,7.20
2018-01-17T20:12:58.424Z,4.60
2018-01-17T20:15:26.877Z,3.77
2018-01-17T20:17:55.033Z,4.23
2018-01-17T20:20:23.189Z,4.07
2018-01-17T20:22:57.983Z,3.73
2018-01-17T20:25:26.118Z,4.10
2018-01-17T20:27:54.270Z,4.20
2018-01-17T20:30:23.221Z,4.00
2018-01-17T20:32:51.362Z,4.80
2018-01-17T20:35:20.266Z,3.57
2018-01-17T20:37:48.434Z,4.40
2018-01-17T20:40:16.642Z,4.87
2018-01-17T20:42:44.764Z,4.27
2018-01-17T20:45:12.887Z,4.07
2018-01-17T20:47:42.659Z,4.10
2018-01-17T20:50:10.822Z,4.00
2018-01-17T20:52:39.762Z,3.70
2018-01-17T20:55:07.916Z,4.43
2018-01-17T20:57:36.798Z,3.53
2018-01-17T21:00:04.956Z,3.97
2018-01-17T21:02:33.112Z,4.40
2018-01-17T21:05:01.270Z,4.57
2018-01-17T21:07:30.195Z,3.80
2018-01-17T21:09:58.352Z,5.30
2018-01-17T21:12:28.568Z,5.50
2018-01-17T21:14:56.722Z,4.20
2018-01-17T21:17:24.917Z,3.67
2018-01-17T21:19:53.069Z,3.60
2018-01-17T21:22:21.226Z,4.20
2018-01-17T21:24:51.056Z,4.07
2018-01-17T21:27:19.982Z,3.40
2018-01-17T21:29:49.135Z,3.40
2018-01-17T21:32:17.824Z,3.80
2018-01-17T21:34:46.749Z,3.10
2018-01-17T21:37:16.037Z,3.63
2018-01-17T21:39:44.161Z,4.50
2018-01-17T21:42:19.006Z,3.17
2018-01-17T21:47:20.818Z,3.17
2018-01-17T21:49:51.285Z,3.50
2018-01-17T21:52:19.495Z,3.10
2018-01-17T21:54:50.383Z,2.63
2018-01-17T21:57:18.540Z,2.93
2018-01-17T21:59:48.072Z,2.93
2018-01-17T22:02:16.905Z,3.77
2018-01-17T22:04:47.249Z,2.33
2018-01-17T22:07:17.983Z,3.10
2018-01-17T22:09:47.478Z,1.93
2018-01-17T22:12:16.477Z,2.47
2018-01-17T22:14:44.618Z,2.87
2018-01-17T22:17:12.764Z,3.37
2018-01-17T22:19:41.910Z,3.57
2018-01-17T22:22:10.834Z,3.20
2018-01-17T22:24:39.884Z,2.70
2018-01-17T22:27:08.927Z,3.47
2018-01-17T22:29:38.643Z,3.00
2018-01-17T22:32:07.539Z,2.83
2018-01-17T22:34:37.126Z,3.03
2018-01-17T22:37:06.191Z,3.50
2018-01-17T22:39:35.761Z,2.63
2018-01-17T22:42:03.919Z,3.33
2018-01-17T22:44:32.657Z,3.80
2018-01-17T22:47:00.816Z,3.60
2018-01-17T22:49:28.936Z,3.40
2018-01-17T22:51:58.873Z,3.00
2018-01-17T22:54:27.767Z,2.90
2018-01-17T22:56:57.410Z,3.13
2018-01-17T22:59:26.420Z,3.57
2018-01-17T23:01:54.792Z,2.90
2018-01-17T23:04:23.819Z,3.90
2018-01-17T23:06:51.990Z,3.27
2018-01-17T23:09:20.893Z,3.67
2018-01-17T23:11:49.817Z,4.07
2018-01-17T23:14:17.962Z,2.90
2018-01-17T23:16:46.144Z,3.03
2018-01-17T23:19:15.609Z,3.90
2018-01-17T23:21:43.742Z,4.90
2018-01-17T23:24:11.861Z,4.10
2018-01-17T23:26:40.789Z,4.00
2018-01-17T23:29:08.921Z,2.60
2018-01-17T23:31:37.069Z,2.80
2018-01-17T23:34:05.263Z,3.03
2018-01-17T23:36:33.412Z,3.60
2018-01-17T23:39:02.305Z,3.80
2018-01-17T23:41:31.244Z,3.10
2018-01-17T23:43:59.404Z,3.37
2018-01-17T23:46:28.326Z,3.70
2018-01-17T23:48:56.492Z,3.50
2018-01-17T23:51:26.044Z,3.27
2018-01-17T23:53:54.174Z,3.03
2018-01-17T23:56:22.319Z,2.97
2018-01-17T23:58:50.456Z,3.47
